createdAt,value
2022-12-11T00:01:23.591Z,20.1
2022-12-11T00:06:24.035Z,19.8
2022-12-11T00:11:23.661Z,19.4
2022-12-11T00:16:27.942Z,19.2
2022-12-11T00:21:23.618Z,19
2022-12-11T00:26:23.617Z,19
2022-12-11T00:31:23.813Z,18.8
2022-12-11T00:36:29.350Z,18.7
2022-12-11T00:41:24.037Z,18
2022-12-11T00:46:25.430Z,17.8
2022-12-11T00:51:23.677Z,17.7
2022-12-11T00:56:23.614Z,17.5
2022-12-11T01:01:24.022Z,17.5
2022-12-11T01:06:23.653Z,17.7
2022-12-11T01:11:23.617Z,17.7
2022-12-11T01:18:14.802Z,17.7
2022-12-11T01:21:23.984Z,18.1
2022-12-11T01:26:23.874Z,18.2
2022-12-11T01:31:23.678Z,18.4
2022-12-11T01:36:23.688Z,18.4
2022-12-11T01:41:24.151Z,18.4
2022-12-11T01:46:23.734Z,18.5
2022-12-11T01:51:26.637Z,18.5
2022-12-11T01:56:23.700Z,18.8
2022-12-11T02:01:23.794Z,19
2022-12-11T02:06:23.673Z,19.7
2022-12-11T02:11:23.637Z,19.8
2022-12-11T02:16:23.738Z,19.9
2022-12-11T02:21:23.858Z,20.2
2022-12-11T02:26:23.714Z,20.7
2022-12-11T02:31:23.696Z,21.3
2022-12-11T02:36:23.641Z,21.3
2022-12-11T02:41:24.091Z,21.3
2022-12-11T02:46:24.824Z,21.3
2022-12-11T02:51:23.623Z,21.3
2022-12-11T02:56:23.620Z,21.3
2022-12-11T03:01:23.683Z,21.3
2022-12-11T03:06:23.706Z,21.3
2022-12-11T03:11:26.325Z,21.2
2022-12-11T03:16:23.834Z,21.3
2022-12-11T03:21:23.676Z,21.8
2022-12-11T03:26:23.634Z,21.8
2022-12-11T03:31:23.670Z,21.8
2022-12-11T03:36:24.008Z,21.8
2022-12-11T03:41:23.701Z,21.9
2022-12-11T03:46:23.763Z,21.9
2022-12-11T03:51:23.657Z,21.9
2022-12-11T03:56:23.641Z,21.9
2022-12-11T04:01:23.724Z,21.9
2022-12-11T04:06:23.662Z,21.4
2022-12-11T04:11:23.720Z,21.4
2022-12-11T04:16:23.781Z,21.2
2022-12-11T04:21:23.654Z,20.1
2022-12-11T04:26:23.631Z,20.1
2022-12-11T04:31:24.748Z,20.1
2022-12-11T04:36:23.718Z,20.1
2022-12-11T04:41:24.528Z,20.1
2022-12-11T04:46:23.747Z,20.2
2022-12-11T04:51:23.673Z,20.3
2022-12-11T04:56:23.663Z,21.5
2022-12-11T05:01:25.406Z,21.6
2022-12-11T05:06:24.183Z,21.6
2022-12-11T05:11:23.695Z,21.6
2022-12-11T05:16:23.731Z,21.6
2022-12-11T05:21:23.728Z,20.8
2022-12-11T05:26:23.672Z,20.7
2022-12-11T05:31:23.946Z,20.7
2022-12-11T05:36:23.712Z,20.5
2022-12-11T05:41:24.133Z,20.5
2022-12-11T05:46:23.787Z,20.5
2022-12-11T05:51:23.686Z,20.5
2022-12-11T05:56:23.685Z,20.7
2022-12-11T06:01:23.710Z,20.3
2022-12-11T06:06:23.668Z,20.3
2022-12-11T06:11:28.513Z,20.3
2022-12-11T06:16:25.013Z,20.2
2022-12-11T06:21:24.784Z,20.2
2022-12-11T06:26:23.677Z,20.2
2022-12-11T06:31:23.946Z,19.9
2022-12-11T06:36:23.688Z,19.5
2022-12-11T06:41:24.051Z,19
2022-12-11T06:46:23.691Z,19
2022-12-11T06:51:24.659Z,19.5
2022-12-11T06:56:27.231Z,19.9
2022-12-11T07:01:23.734Z,19.9
2022-12-11T07:06:23.738Z,20.6
2022-12-11T07:11:23.778Z,20.6
2022-12-11T07:16:23.821Z,20.9
2022-12-11T07:21:23.800Z,21.4
2022-12-11T07:26:23.751Z,21.9
2022-12-11T07:31:23.808Z,23
2022-12-11T07:36:25.213Z,24.3
2022-12-11T07:41:24.087Z,25.1
2022-12-11T07:46:23.742Z,25.1
2022-12-11T07:51:23.690Z,25.4
2022-12-11T07:56:23.700Z,25.8
2022-12-11T08:01:25.224Z,25.8
2022-12-11T08:06:23.698Z,25.8
2022-12-11T08:11:23.737Z,26.7
2022-12-11T08:16:23.785Z,27.3
2022-12-11T08:21:24.227Z,29.1
2022-12-11T08:26:24.413Z,31.7
2022-12-11T08:31:24.086Z,31.7
2022-12-11T08:36:26.870Z,31.7
2022-12-11T08:41:26.230Z,31.7
2022-12-11T08:46:23.928Z,31.1
2022-12-11T08:51:23.974Z,27.9
2022-12-11T08:56:24.314Z,26.1
2022-12-11T09:01:24.105Z,24.4
2022-12-11T09:06:24.065Z,22.7
2022-12-11T09:11:24.063Z,21.2
2022-12-11T09:16:24.085Z,19
2022-12-11T09:21:24.028Z,18.9
2022-12-11T09:26:23.986Z,18.9
2022-12-11T09:31:24.076Z,18.9
2022-12-11T09:36:24.913Z,18.9
2022-12-11T09:41:24.503Z,18.9
2022-12-11T09:46:33.866Z,18.9
2022-12-11T09:51:23.948Z,19.3
2022-12-11T09:56:24.215Z,19.3
2022-12-11T10:01:24.314Z,18.8
2022-12-11T10:06:23.980Z,18.8
2022-12-11T10:11:24.010Z,18.6
2022-12-11T10:16:24.955Z,18.6
2022-12-11T10:21:25.105Z,18.6
2022-12-11T10:26:23.758Z,17.7
2022-12-11T10:31:25.016Z,17.4
2022-12-11T10:36:23.808Z,16.8
2022-12-11T10:41:24.264Z,16.6
2022-12-11T10:46:23.826Z,16
2022-12-11T10:51:23.745Z,15.1
2022-12-11T10:56:23.793Z,15.1
2022-12-11T11:01:24.757Z,14.8
2022-12-11T11:06:23.746Z,14.7
2022-12-11T11:11:23.726Z,14.2
2022-12-11T11:16:23.758Z,14.2
2022-12-11T11:21:24.218Z,14.1
2022-12-11T11:26:23.840Z,14.1
2022-12-11T11:31:23.790Z,13.9
2022-12-11T11:36:23.736Z,13.9
2022-12-11T11:41:23.915Z,14.2
2022-12-11T11:46:23.903Z,14.3
2022-12-11T11:51:24.443Z,14.4
2022-12-11T11:56:23.724Z,14.6
2022-12-11T12:01:23.740Z,14.6
2022-12-11T12:06:23.725Z,14.8
2022-12-11T12:11:23.774Z,14.9
2022-12-11T12:16:51.974Z,15.2
2022-12-11T12:21:24.051Z,15.2
2022-12-11T12:26:25.252Z,15.6
2022-12-11T12:31:23.779Z,15.2
2022-12-11T12:36:23.727Z,15.8
2022-12-11T12:41:23.821Z,15.9
2022-12-11T12:46:23.790Z,16.2
2022-12-11T12:51:23.755Z,16.2
2022-12-11T12:56:23.700Z,16.2
2022-12-11T13:37:45.744Z,15.2
2022-12-11T13:42:45.595Z,15.2
2022-12-11T13:47:45.049Z,15.3
2022-12-11T13:52:45.022Z,15.2
2022-12-11T13:57:46.557Z,15.3
2022-12-11T14:02:45.063Z,15.6
2022-12-11T14:07:45.066Z,15.3
2022-12-11T14:12:45.195Z,15.3
2022-12-11T14:17:51.973Z,14.8
2022-12-11T14:22:45.224Z,14.8
2022-12-11T14:27:45.128Z,14.8
2022-12-11T14:32:47.526Z,14
2022-12-11T14:37:45.125Z,14
2022-12-11T14:43:09.259Z,13.7
2022-12-11T14:48:09.184Z,13.7
2022-12-11T14:53:08.464Z,13.7
2022-12-11T14:58:11.275Z,12.9
2022-12-11T15:03:08.266Z,12.6
2022-12-11T15:08:08.060Z,12.6
2022-12-11T15:13:14.351Z,12.6
2022-12-11T15:18:08.141Z,12.9
2022-12-11T15:23:08.204Z,12.8
2022-12-11T15:28:11.998Z,12.8
2022-12-11T15:33:08.218Z,13
2022-12-11T15:38:08.338Z,13.5
2022-12-11T15:43:08.941Z,13.5
2022-12-11T15:48:08.122Z,13
2022-12-11T15:53:08.239Z,13.4
2022-12-11T15:58:11.093Z,13.4
2022-12-11T16:03:08.449Z,13.4
2022-12-11T16:08:09.390Z,13.4
2022-12-11T16:13:09.921Z,13.4
2022-12-11T16:18:08.202Z,13.4
2022-12-11T16:23:08.253Z,13.4
2022-12-11T16:28:08.441Z,13.5
2022-12-11T16:33:14.446Z,13.5
2022-12-11T16:38:08.196Z,13.5
2022-12-11T16:43:12.255Z,13.5
2022-12-11T16:48:08.238Z,13.5
2022-12-11T16:53:08.141Z,13.5
2022-12-11T16:58:13.478Z,13.7
2022-12-11T17:03:08.572Z,13.7
2022-12-11T17:08:08.286Z,15.1
2022-12-11T17:13:12.001Z,15.1
2022-12-11T17:18:13.073Z,15.1
2022-12-11T17:23:08.429Z,15.1
2022-12-11T17:28:10.914Z,15.1
2022-12-11T17:33:08.126Z,15.1
2022-12-11T17:38:08.097Z,16
2022-12-11T17:43:12.811Z,16.2
2022-12-11T17:48:08.217Z,16.2
2022-12-11T17:53:08.288Z,16.2
2022-12-11T17:58:10.254Z,16
2022-12-11T18:03:08.318Z,15.7
2022-12-11T18:08:08.220Z,15.7
2022-12-11T18:13:11.447Z,15.3
2022-12-11T18:18:08.307Z,15.3
2022-12-11T18:23:08.872Z,15.7
2022-12-11T18:28:10.845Z,15.8
2022-12-11T18:33:08.376Z,16.2
2022-12-11T18:38:08.337Z,16.6
2022-12-11T18:43:11.974Z,16.6
2022-12-11T18:48:09.405Z,17.7
2022-12-11T18:53:08.387Z,17.8
2022-12-11T18:58:10.609Z,18
2022-12-11T19:03:08.725Z,18.5
2022-12-11T19:08:08.412Z,18.8
2022-12-11T19:13:13.724Z,19.2
2022-12-11T19:18:08.293Z,19.2
2022-12-11T19:23:08.310Z,18.5
2022-12-11T19:28:11.299Z,19.2
2022-12-11T19:33:08.775Z,24.1
2022-12-11T19:38:08.493Z,24.1
2022-12-11T19:43:13.052Z,24.1
2022-12-11T19:48:10.359Z,20.5
2022-12-11T19:53:10.505Z,21.3
2022-12-11T19:58:11.846Z,21.3
2022-12-11T20:03:10.602Z,21.3
2022-12-11T20:08:42.783Z,21.3
2022-12-11T20:13:11.225Z,24.5
2022-12-11T20:18:18.499Z,24.5
2022-12-11T20:23:10.572Z,25.9
2022-12-11T20:28:10.442Z,28.4
2022-12-11T20:33:10.353Z,28.4
2022-12-11T20:38:10.423Z,28.1
2022-12-11T20:43:10.981Z,28.1
2022-12-11T20:48:10.389Z,28.1
2022-12-11T20:53:10.592Z,22.4
2022-12-11T20:58:10.926Z,22.4
2022-12-11T21:03:10.751Z,22.4
2022-12-11T21:23:10.409Z,22.9
2022-12-11T21:28:10.314Z,22.5
2022-12-11T21:33:10.302Z,22.1
2022-12-11T21:38:10.288Z,21.35
2022-12-11T21:43:10.433Z,20.6
2022-12-11T21:48:10.281Z,20.55
2022-12-11T21:53:10.340Z,20.5
2022-12-11T21:58:10.332Z,20
2022-12-11T22:03:10.977Z,20
2022-12-11T22:08:10.473Z,19.7
2022-12-11T22:13:10.635Z,19.7
2022-12-11T22:18:10.395Z,19.8
2022-12-11T22:23:10.447Z,19.8
2022-12-11T22:28:10.306Z,19.7
2022-12-11T22:33:10.400Z,19
2022-12-11T22:38:10.364Z,19
2022-12-11T22:43:10.293Z,19
2022-12-11T22:48:11.482Z,19
2022-12-11T22:53:10.317Z,18.9
2022-12-11T22:58:10.358Z,18.8
2022-12-11T23:03:10.430Z,18.8
2022-12-11T23:08:10.441Z,18.7
2022-12-11T23:13:10.782Z,18.7
2022-12-11T23:18:10.340Z,18.6
2022-12-11T23:23:10.459Z,18.6
2022-12-11T23:28:10.270Z,18.6
2022-12-11T23:33:10.301Z,18.8
2022-12-11T23:38:10.342Z,19
2022-12-11T23:43:10.779Z,19
2022-12-11T23:48:10.252Z,19
2022-12-11T23:53:11.303Z,19.3
2022-12-11T23:58:10.276Z,19.6
